createdAt,value
2023-04-26T00:01:48.524Z,52.13
2023-04-26T00:03:50.534Z,52.02
2023-04-26T00:05:52.485Z,52.22
2023-04-26T00:07:54.408Z,52.86
2023-04-26T00:09:56.285Z,52.49
2023-04-26T00:11:58.101Z,53.14
2023-04-26T00:14:00.009Z,53.14
2023-04-26T00:16:05.283Z,52.48
2023-04-26T00:18:07.335Z,53.75
2023-04-26T00:20:12.174Z,53.52
2023-04-26T00:22:14.017Z,53.85
2023-04-26T00:24:18.379Z,54.08
2023-04-26T00:26:20.159Z,54.21
2023-04-26T00:28:22.205Z,53.44
2023-04-26T00:30:23.989Z,53.29
2023-04-26T00:32:26.112Z,53.76
2023-04-26T00:34:33.455Z,54.38
2023-04-26T00:36:35.228Z,53.90
2023-04-26T00:38:37.250Z,54.07
2023-04-26T00:40:39.116Z,54.62
2023-04-26T00:42:41.013Z,54.25
2023-04-26T00:44:43.183Z,54.72
2023-04-26T00:46:45.065Z,54.78
2023-04-26T00:48:47.433Z,55.44
2023-04-26T00:50:49.213Z,55.37
2023-04-26T00:52:51.503Z,55.46
2023-04-26T00:54:54.916Z,54.94
2023-04-26T00:56:57.066Z,54.79
2023-04-26T00:58:59.028Z,55.14
2023-04-26T01:01:00.848Z,55.48
2023-04-26T01:03:03.844Z,55.10
2023-04-26T01:05:06.909Z,54.74
2023-04-26T01:07:09.096Z,55.04
2023-04-26T01:09:14.874Z,54.54
2023-04-26T01:11:16.802Z,55.76
2023-04-26T01:13:18.655Z,55.31
2023-04-26T01:15:20.802Z,55.47
2023-04-26T01:17:22.830Z,55.63
2023-04-26T01:19:25.791Z,55.80
2023-04-26T01:21:27.685Z,55.57
2023-04-26T01:23:29.423Z,55.91
2023-04-26T01:25:31.338Z,55.33
2023-04-26T01:27:33.341Z,55.84
2023-04-26T01:29:35.905Z,55.92
2023-04-26T01:31:37.811Z,55.69
2023-04-26T01:33:39.736Z,55.68
2023-04-26T01:35:41.989Z,55.89
2023-04-26T01:37:44.121Z,56.05
2023-04-26T01:39:46.636Z,56.04
2023-04-26T01:41:48.459Z,56.19
2023-04-26T01:43:50.951Z,55.74
2023-04-26T01:45:53.610Z,56.24
2023-04-26T01:47:56.578Z,56.24
2023-04-26T01:49:58.474Z,55.46
2023-04-26T01:52:01.235Z,55.66
2023-04-26T01:54:03.265Z,55.92
2023-04-26T01:56:06.004Z,55.01
2023-04-26T01:58:07.931Z,55.34
2023-04-26T02:00:10.455Z,55.38
2023-04-26T02:02:12.482Z,55.25
2023-04-26T02:04:14.365Z,55.08
2023-04-26T02:06:16.275Z,55.51
2023-04-26T02:08:18.024Z,54.85
2023-04-26T02:10:19.777Z,55.36
2023-04-26T02:12:21.516Z,55.10
2023-04-26T02:14:23.363Z,55.00
2023-04-26T02:16:25.408Z,55.27
2023-04-26T02:18:27.740Z,54.89
2023-04-26T02:20:29.548Z,54.68
2023-04-26T02:22:31.504Z,54.86
2023-04-26T02:24:33.682Z,54.63
2023-04-26T02:26:36.330Z,54.82
2023-04-26T02:28:38.543Z,55.07
2023-04-26T02:30:40.554Z,55.08
2023-04-26T02:32:42.957Z,55.22
2023-04-26T02:34:45.038Z,54.60
2023-04-26T02:36:47.013Z,54.54
2023-04-26T02:38:48.982Z,54.43
2023-04-26T02:40:53.667Z,54.76
2023-04-26T02:42:55.402Z,55.20
2023-04-26T02:44:57.306Z,54.33
2023-04-26T02:46:59.162Z,54.69
2023-04-26T02:49:01.068Z,54.63
2023-04-26T02:51:02.879Z,55.13
2023-04-26T02:53:04.732Z,55.20
2023-04-26T02:55:07.295Z,55.26
2023-04-26T02:57:09.832Z,54.95
2023-04-26T02:59:11.622Z,54.82
2023-04-26T03:01:14.678Z,54.81
2023-04-26T03:03:17.078Z,55.14
2023-04-26T03:05:20.168Z,54.42
2023-04-26T03:07:21.941Z,55.46
2023-04-26T03:09:23.852Z,54.59
2023-04-26T03:11:26.114Z,54.96
2023-04-26T03:13:27.984Z,54.89
2023-04-26T03:15:29.724Z,54.76
2023-04-26T03:17:31.572Z,54.65
2023-04-26T03:19:33.371Z,55.62
2023-04-26T03:21:35.176Z,55.00
2023-04-26T03:23:36.969Z,54.77
2023-04-26T03:25:38.735Z,54.33
2023-04-26T03:27:40.551Z,54.93
2023-04-26T03:29:43.975Z,53.93
2023-04-26T03:31:46.104Z,54.12
2023-04-26T03:33:48.031Z,54.72
2023-04-26T03:35:52.047Z,55.03
2023-04-26T03:37:54.457Z,54.40
2023-04-26T03:39:57.682Z,55.37
2023-04-26T03:41:59.490Z,55.59
2023-04-26T03:44:01.301Z,55.44
2023-04-26T03:46:04.901Z,55.44
2023-04-26T03:48:06.863Z,55.33
2023-04-26T03:50:09.359Z,55.19
2023-04-26T03:52:11.335Z,55.33
2023-04-26T03:54:13.239Z,55.44
2023-04-26T03:56:15.038Z,55.34
2023-04-26T03:58:16.851Z,56.05
2023-04-26T04:00:18.598Z,56.23
2023-04-26T04:02:20.596Z,55.41
2023-04-26T04:04:23.123Z,55.55
2023-04-26T04:06:25.459Z,56.25
2023-04-26T04:08:27.174Z,55.81
2023-04-26T04:10:29.361Z,56.42
2023-04-26T04:12:31.167Z,56.12
2023-04-26T04:14:32.956Z,56.51
2023-04-26T04:16:34.906Z,56.11
2023-04-26T04:18:36.810Z,56.58
2023-04-26T04:20:38.984Z,56.89
2023-04-26T04:22:40.904Z,56.80
2023-04-26T04:24:44.283Z,56.81
2023-04-26T04:26:46.552Z,56.41
2023-04-26T04:28:48.784Z,56.29
2023-04-26T04:30:53.678Z,56.76
2023-04-26T04:32:55.949Z,56.34
2023-04-26T04:34:58.928Z,56.36
2023-04-26T04:37:00.695Z,56.40
2023-04-26T04:39:03.451Z,56.41
2023-04-26T04:41:05.266Z,56.18
2023-04-26T04:43:07.022Z,57.07
2023-04-26T04:45:09.678Z,56.56
2023-04-26T04:47:12.086Z,57.31
2023-04-26T04:49:15.046Z,57.50
2023-04-26T04:51:16.864Z,57.46
2023-04-26T04:53:18.847Z,57.46
2023-04-26T04:55:20.640Z,56.93
2023-04-26T04:57:22.441Z,57.40
2023-04-26T04:59:24.670Z,57.71
2023-04-26T05:01:26.595Z,57.55
2023-04-26T05:03:29.112Z,57.15
2023-04-26T05:05:31.513Z,57.27
2023-04-26T05:07:33.329Z,57.48
2023-04-26T05:09:35.483Z,57.55
2023-04-26T05:11:37.912Z,57.56
2023-04-26T05:13:39.785Z,57.65
2023-04-26T05:15:41.548Z,57.96
2023-04-26T05:17:43.410Z,57.63
2023-04-26T05:19:45.685Z,57.31
2023-04-26T05:21:47.519Z,57.12
2023-04-26T05:23:49.533Z,57.17
2023-04-26T05:25:51.377Z,57.13
2023-04-26T05:27:53.201Z,56.38
2023-04-26T05:29:54.976Z,56.85
2023-04-26T05:31:57.146Z,57.30
2023-04-26T05:33:58.980Z,57.69
2023-04-26T05:36:01.632Z,57.72
2023-04-26T05:38:04.006Z,57.02
2023-04-26T05:40:07.748Z,57.24
2023-04-26T05:42:09.873Z,56.90
2023-04-26T05:44:11.626Z,57.29
2023-04-26T05:46:13.580Z,57.20
2023-04-26T05:48:15.500Z,56.92
2023-04-26T05:50:17.540Z,56.88
2023-04-26T05:52:19.403Z,56.49
2023-04-26T05:54:22.216Z,57.06
2023-04-26T05:56:25.110Z,56.27
2023-04-26T05:58:26.994Z,55.73
2023-04-26T06:00:29.096Z,55.98
2023-04-26T06:02:31.080Z,55.86
2023-04-26T06:04:33.070Z,56.00
2023-04-26T06:06:35.125Z,55.93
2023-04-26T06:08:37.245Z,55.80
2023-04-26T06:10:39.052Z,55.93
2023-04-26T06:12:41.102Z,55.49
2023-04-26T06:14:42.956Z,55.42
2023-04-26T06:16:45.180Z,55.41
2023-04-26T06:18:47.121Z,55.91
2023-04-26T06:20:48.897Z,55.78
2023-04-26T06:22:50.826Z,55.07
2023-04-26T06:24:52.834Z,54.86
2023-04-26T06:26:55.014Z,54.25
2023-04-26T06:28:58.791Z,54.49
2023-04-26T06:31:03.246Z,53.40
2023-04-26T06:33:06.153Z,53.21
2023-04-26T06:35:08.763Z,53.03
2023-04-26T06:37:12.950Z,52.53
2023-04-26T06:39:14.904Z,52.54
2023-04-26T06:41:17.327Z,52.23
2023-04-26T06:43:19.538Z,51.95
2023-04-26T06:45:22.315Z,51.24
2023-04-26T06:47:24.462Z,51.29
2023-04-26T06:49:27.141Z,50.81
2023-04-26T06:51:30.132Z,50.47
2023-04-26T06:53:32.340Z,51.66
2023-04-26T06:55:35.376Z,51.23
2023-04-26T06:57:37.623Z,51.40
2023-04-26T06:59:40.010Z,51.60
2023-04-26T07:01:43.093Z,50.74
2023-04-26T07:03:45.792Z,50.75
2023-04-26T07:05:47.931Z,50.67
2023-04-26T07:07:50.997Z,50.72
2023-04-26T07:09:53.243Z,50.71
2023-04-26T07:11:55.303Z,50.25
2023-04-26T07:13:58.161Z,50.67
2023-04-26T07:16:00.689Z,50.39
2023-04-26T07:18:03.155Z,50.20
2023-04-26T07:20:06.680Z,49.70
2023-04-26T07:22:09.061Z,50.21
2023-04-26T07:24:11.484Z,50.57
2023-04-26T07:26:15.179Z,49.86
2023-04-26T07:28:17.656Z,49.87
2023-04-26T07:30:20.515Z,49.96
2023-04-26T07:32:23.308Z,50.12
2023-04-26T07:34:25.869Z,48.81
2023-04-26T07:36:28.823Z,48.69
2023-04-26T07:38:33.617Z,48.20
2023-04-26T07:40:38.411Z,49.21
2023-04-26T07:42:41.060Z,49.44
2023-04-26T07:44:43.858Z,48.61
2023-04-26T07:46:48.020Z,48.18
2023-04-26T07:48:50.769Z,47.92
2023-04-26T07:50:53.191Z,47.73
2023-04-26T07:53:00.665Z,47.92
2023-04-26T07:55:03.301Z,47.60
2023-04-26T07:57:05.869Z,46.98
2023-04-26T07:59:08.121Z,47.54
2023-04-26T08:01:13.386Z,46.98
2023-04-26T08:03:20.374Z,46.08
2023-04-26T08:05:33.618Z,46.43
2023-04-26T08:07:36.019Z,46.28
2023-04-26T08:09:38.229Z,46.60
2023-04-26T08:11:42.037Z,45.98
2023-04-26T08:13:44.899Z,46.28
2023-04-26T08:15:47.954Z,46.36
2023-04-26T08:17:53.712Z,46.76
2023-04-26T08:20:13.505Z,46.40
2023-04-26T08:22:16.018Z,46.11
2023-04-26T08:24:18.599Z,46.26
2023-04-26T08:26:20.844Z,46.78
2023-04-26T08:28:23.067Z,46.09
2023-04-26T08:30:32.617Z,46.31
2023-04-26T08:32:36.083Z,45.85
2023-04-26T08:34:38.350Z,45.19
2023-04-26T08:36:42.736Z,45.81
2023-04-26T08:38:44.834Z,45.42
2023-04-26T08:40:48.128Z,45.97
2023-04-26T08:42:52.852Z,45.71
2023-04-26T08:44:56.181Z,44.60
2023-04-26T08:47:06.932Z,44.53
2023-04-26T08:49:17.913Z,44.46
2023-04-26T08:51:21.947Z,44.11
2023-04-26T08:53:25.194Z,44.01
2023-04-26T08:55:28.045Z,43.61
2023-04-26T08:57:33.773Z,44.38
2023-04-26T08:59:39.225Z,43.47
2023-04-26T09:01:43.723Z,43.52
2023-04-26T09:03:46.301Z,43.90
2023-04-26T09:05:50.343Z,43.71
2023-04-26T09:07:57.661Z,43.79
2023-04-26T09:10:04.901Z,43.55
2023-04-26T09:12:08.123Z,43.19
2023-04-26T09:14:10.734Z,43.10
2023-04-26T09:16:13.125Z,43.41
2023-04-26T09:18:18.648Z,43.35
2023-04-26T09:20:25.596Z,43.07
2023-04-26T09:22:36.735Z,42.83
2023-04-26T09:24:48.792Z,42.81
2023-04-26T09:27:03.432Z,42.41
2023-04-26T09:29:14.061Z,43.36
2023-04-26T09:31:38.544Z,43.06
2023-04-26T09:33:59.534Z,43.38
2023-04-26T09:36:12.096Z,43.68
2023-04-26T09:38:17.470Z,43.02
2023-04-26T09:40:21.046Z,42.93
2023-04-26T09:42:23.510Z,43.21
2023-04-26T09:44:26.176Z,43.23
2023-04-26T09:46:31.184Z,42.41
2023-04-26T09:48:35.217Z,43.01
2023-04-26T09:50:37.422Z,42.90
2023-04-26T09:52:49.299Z,43.21
2023-04-26T09:54:53.779Z,43.31
2023-04-26T09:57:04.273Z,44.14
2023-04-26T09:59:08.576Z,43.28
2023-04-26T10:01:12.174Z,43.28
2023-04-26T10:03:16.745Z,43.75
2023-04-26T10:05:19.465Z,43.65
2023-04-26T10:07:24.229Z,44.06
2023-04-26T10:09:27.816Z,43.48
2023-04-26T10:11:30.940Z,43.35
2023-04-26T10:13:33.534Z,43.67
2023-04-26T10:15:38.713Z,43.48
2023-04-26T10:17:41.120Z,43.58
2023-04-26T10:19:44.840Z,43.79
2023-04-26T10:21:49.139Z,43.88
2023-04-26T10:23:51.341Z,43.86
2023-04-26T10:25:55.121Z,43.82
2023-04-26T10:27:57.438Z,44.26
2023-04-26T10:30:04.738Z,44.34
2023-04-26T10:32:07.541Z,43.95
2023-04-26T10:34:20.605Z,43.62
2023-04-26T10:36:22.806Z,43.32
2023-04-26T10:38:24.999Z,43.65
2023-04-26T10:40:36.639Z,43.80
2023-04-26T10:42:41.822Z,43.25
2023-04-26T10:44:45.934Z,42.88
2023-04-26T10:46:53.318Z,42.60
2023-04-26T10:48:56.493Z,42.82
2023-04-26T10:51:05.850Z,43.70
2023-04-26T10:53:08.375Z,43.16
2023-04-26T10:55:10.685Z,42.49
2023-04-26T10:57:13.132Z,42.70
2023-04-26T10:59:36.242Z,42.14
2023-04-26T11:01:42.672Z,42.62
2023-04-26T11:04:09.939Z,41.45
2023-04-26T11:06:15.874Z,41.89
2023-04-26T11:08:22.055Z,41.45
2023-04-26T11:10:24.191Z,41.27
2023-04-26T11:12:26.757Z,42.00
2023-04-26T11:14:29.968Z,41.54
2023-04-26T11:16:32.400Z,42.20
2023-04-26T11:18:37.146Z,41.50
2023-04-26T11:20:39.116Z,41.47
2023-04-26T11:22:42.618Z,41.29
2023-04-26T11:24:45.316Z,40.95
2023-04-26T11:26:53.421Z,40.57
2023-04-26T11:28:55.322Z,40.20
2023-04-26T11:30:58.304Z,40.34
2023-04-26T11:33:01.981Z,40.73
2023-04-26T11:35:04.637Z,40.56
2023-04-26T11:37:07.775Z,40.10
2023-04-26T11:39:09.875Z,40.74
2023-04-26T11:41:12.274Z,39.73
2023-04-26T11:43:15.847Z,40.17
2023-04-26T11:45:18.653Z,40.19
2023-04-26T11:47:23.222Z,39.67
2023-04-26T11:49:25.838Z,39.57
2023-04-26T11:51:30.718Z,38.31
2023-04-26T11:53:38.672Z,38.44
2023-04-26T11:55:42.678Z,38.54
2023-04-26T11:57:44.943Z,38.15
2023-04-26T11:59:47.700Z,37.60
2023-04-26T12:01:53.048Z,37.97
2023-04-26T12:03:58.236Z,38.31
2023-04-26T12:06:01.688Z,37.18
2023-04-26T12:08:04.357Z,36.86
2023-04-26T12:10:26.520Z,36.96
2023-04-26T12:12:28.906Z,37.22
2023-04-26T12:14:35.779Z,38.32
2023-04-26T12:16:38.338Z,37.02
2023-04-26T12:18:41.884Z,37.33
2023-04-26T12:20:45.155Z,37.07
2023-04-26T12:23:01.197Z,36.92
2023-04-26T12:25:07.698Z,36.49
2023-04-26T12:27:22.538Z,36.04
2023-04-26T12:29:25.215Z,36.60
2023-04-26T12:31:27.609Z,36.42
2023-04-26T12:33:29.978Z,36.98
2023-04-26T12:35:34.337Z,36.67
2023-04-26T12:37:36.969Z,36.33
2023-04-26T12:39:40.237Z,36.15
2023-04-26T12:41:47.375Z,36.37
2023-04-26T12:43:49.727Z,36.62
2023-04-26T12:45:52.489Z,36.90
2023-04-26T12:47:55.319Z,36.82
2023-04-26T12:50:02.318Z,37.75
2023-04-26T12:52:04.791Z,37.25
2023-04-26T12:54:06.870Z,37.92
2023-04-26T12:56:09.530Z,37.71
2023-04-26T12:58:11.855Z,37.33
2023-04-26T13:00:17.127Z,37.44
2023-04-26T13:02:19.572Z,37.09
2023-04-26T13:04:22.001Z,37.09
2023-04-26T13:06:24.966Z,36.95
2023-04-26T13:08:27.132Z,36.44
2023-04-26T13:10:29.389Z,37.26
2023-04-26T13:12:33.867Z,36.88
2023-04-26T13:14:36.336Z,36.54
2023-04-26T13:16:42.678Z,37.06
2023-04-26T13:18:45.583Z,36.85
2023-04-26T13:20:48.333Z,36.86
2023-04-26T13:22:51.495Z,36.37
2023-04-26T13:24:53.777Z,37.23
2023-04-26T13:26:56.271Z,37.35
2023-04-26T13:28:58.818Z,37.40
2023-04-26T13:31:01.241Z,37.47
2023-04-26T13:33:03.757Z,37.15
2023-04-26T13:35:07.772Z,37.17
2023-04-26T13:37:15.747Z,37.59
2023-04-26T13:39:18.667Z,37.16
2023-04-26T13:41:22.892Z,37.23
2023-04-26T13:43:25.430Z,36.94
2023-04-26T13:45:27.980Z,37.65
2023-04-26T13:47:30.456Z,37.63
2023-04-26T13:49:32.521Z,37.49
2023-04-26T13:51:35.353Z,37.48
2023-04-26T13:53:37.601Z,37.98
2023-04-26T13:55:39.786Z,37.67
2023-04-26T13:57:44.335Z,37.76
2023-04-26T13:59:52.251Z,38.39
2023-04-26T14:02:01.314Z,38.09
2023-04-26T14:04:18.488Z,38.59
2023-04-26T14:06:29.179Z,38.22
2023-04-26T14:08:34.587Z,38.24
2023-04-26T14:10:42.666Z,38.04
2023-04-26T14:12:48.647Z,37.53
2023-04-26T14:14:57.114Z,37.63
2023-04-26T14:17:01.532Z,37.62
2023-04-26T14:19:03.694Z,37.70
2023-04-26T14:21:05.999Z,38.23
2023-04-26T14:23:08.087Z,37.90
2023-04-26T14:25:10.428Z,37.96
2023-04-26T14:27:12.755Z,37.84
2023-04-26T14:29:14.852Z,37.71
2023-04-26T14:31:18.728Z,37.98
2023-04-26T14:33:22.090Z,37.86
2023-04-26T14:35:26.486Z,37.87
2023-04-26T14:37:28.811Z,37.44
2023-04-26T14:39:31.647Z,37.73
2023-04-26T14:41:36.548Z,38.06
2023-04-26T14:43:38.773Z,37.80
2023-04-26T14:45:45.091Z,38.03
2023-04-26T14:47:47.739Z,37.54
2023-04-26T14:49:49.935Z,37.70
2023-04-26T14:51:53.473Z,37.43
2023-04-26T14:53:56.469Z,38.20
2023-04-26T14:55:59.537Z,38.40
2023-04-26T14:58:02.177Z,37.96
2023-04-26T15:00:25.901Z,37.77
2023-04-26T15:02:29.783Z,38.47
2023-04-26T15:04:32.250Z,38.45
2023-04-26T15:06:34.632Z,38.23
2023-04-26T15:08:37.695Z,38.10
2023-04-26T15:10:42.414Z,38.31
2023-04-26T15:12:44.929Z,38.49
2023-04-26T15:14:47.373Z,38.09
2023-04-26T15:16:49.809Z,38.25
2023-04-26T15:18:52.350Z,38.29
2023-04-26T15:20:54.921Z,38.05
2023-04-26T15:22:57.350Z,38.04
2023-04-26T15:24:59.933Z,37.93
2023-04-26T15:27:03.102Z,38.26
2023-04-26T15:29:06.752Z,37.60
2023-04-26T15:31:12.528Z,37.56
2023-04-26T15:33:17.563Z,37.92
2023-04-26T15:35:20.251Z,37.92
2023-04-26T15:37:25.662Z,37.87
2023-04-26T15:39:27.851Z,37.85
2023-04-26T15:41:30.568Z,37.94
2023-04-26T15:43:35.133Z,38.32
2023-04-26T15:45:37.859Z,38.09
2023-04-26T15:47:47.178Z,37.76
2023-04-26T15:49:49.618Z,38.30
2023-04-26T15:51:55.093Z,38.40
2023-04-26T15:53:59.457Z,38.19
2023-04-26T15:56:14.586Z,38.51
2023-04-26T15:58:17.578Z,38.22
2023-04-26T16:00:28.903Z,38.43
2023-04-26T16:02:32.283Z,38.46
2023-04-26T16:04:35.265Z,38.76
2023-04-26T16:06:49.009Z,38.59
2023-04-26T16:08:56.501Z,39.02
2023-04-26T16:11:02.080Z,38.57
2023-04-26T16:13:05.378Z,38.51
2023-04-26T16:17:56.887Z,37.93
2023-04-26T16:22:30.859Z,38.27
2023-04-26T16:24:34.186Z,38.42
2023-04-26T16:26:36.898Z,38.54
2023-04-26T16:28:46.679Z,38.41
2023-04-26T16:30:55.952Z,38.53
2023-04-26T16:33:14.776Z,38.62
2023-04-26T16:35:26.230Z,38.29
2023-04-26T16:37:30.344Z,38.55
2023-04-26T16:39:33.666Z,38.60
2023-04-26T16:41:36.175Z,38.85
2023-04-26T16:43:38.664Z,38.91
2023-04-26T16:45:41.856Z,39.35
2023-04-26T16:47:51.807Z,39.21
2023-04-26T16:50:13.019Z,39.28
2023-04-26T16:52:15.217Z,38.79
2023-04-26T16:54:36.933Z,39.48
2023-04-26T16:56:45.125Z,39.28
2023-04-26T17:03:55.523Z,39.31
2023-04-26T17:05:58.419Z,39.82
2023-04-26T17:08:03.214Z,40.33
2023-04-26T17:10:06.525Z,40.50
2023-04-26T17:12:09.549Z,40.24
2023-04-26T17:14:13.502Z,40.87
2023-04-26T17:16:15.881Z,41.01
2023-04-26T17:18:18.421Z,40.90
2023-04-26T17:20:29.116Z,41.37
2023-04-26T17:22:33.276Z,41.16
2023-04-26T17:24:36.529Z,41.87
2023-04-26T17:26:39.068Z,41.92
2023-04-26T17:28:41.865Z,42.21
2023-04-26T17:30:55.463Z,42.42
2023-04-26T17:32:58.073Z,42.45
2023-04-26T17:35:00.737Z,43.11
2023-04-26T17:37:03.250Z,42.68
2023-04-26T17:39:05.589Z,43.20
2023-04-26T17:41:08.077Z,42.90
2023-04-26T17:43:10.550Z,43.41
2023-04-26T17:45:21.446Z,42.92
2023-04-26T17:47:23.991Z,43.33
2023-04-26T17:49:27.308Z,43.91
2023-04-26T17:51:31.730Z,43.81
2023-04-26T17:53:34.235Z,44.56
2023-04-26T17:55:36.805Z,44.21
2023-04-26T17:57:46.610Z,43.92
2023-04-26T17:59:59.160Z,43.48
2023-04-26T18:02:03.698Z,44.35
2023-04-26T18:04:06.078Z,44.25
2023-04-26T18:06:08.302Z,44.59
2023-04-26T18:08:11.052Z,44.01
2023-04-26T18:10:13.038Z,44.51
2023-04-26T18:12:15.206Z,44.60
2023-04-26T18:14:17.513Z,43.85
2023-04-26T18:16:19.792Z,44.30
2023-04-26T18:18:22.578Z,44.79
2023-04-26T18:20:27.448Z,44.80
2023-04-26T18:22:29.770Z,44.92
2023-04-26T18:24:32.151Z,45.51
2023-04-26T18:26:34.159Z,45.33
2023-04-26T18:28:36.270Z,45.59
2023-04-26T18:30:38.602Z,45.39
2023-04-26T18:32:40.579Z,45.14
2023-04-26T18:34:44.385Z,45.58
2023-04-26T18:36:47.053Z,45.64
2023-04-26T18:38:49.136Z,45.36
2023-04-26T18:40:51.052Z,45.51
2023-04-26T18:42:52.979Z,45.58
2023-04-26T18:44:56.693Z,45.28
2023-04-26T18:46:58.952Z,45.42
2023-04-26T18:49:01.526Z,45.79
2023-04-26T18:51:06.648Z,45.71
2023-04-26T18:53:08.847Z,45.74
2023-04-26T18:55:10.972Z,46.57
2023-04-26T18:57:14.876Z,46.38
2023-04-26T18:59:17.294Z,46.73
2023-04-26T19:01:19.674Z,46.96
2023-04-26T19:03:22.848Z,47.30
2023-04-26T19:05:27.527Z,46.64
2023-04-26T19:07:30.064Z,46.58
2023-04-26T19:09:46.492Z,47.13
2023-04-26T19:11:52.978Z,47.77
2023-04-26T19:13:55.404Z,47.03
2023-04-26T19:15:57.345Z,47.35
2023-04-26T19:17:59.542Z,47.51
2023-04-26T19:20:02.259Z,47.60
2023-04-26T19:22:04.289Z,47.36
2023-04-26T19:24:06.994Z,47.13
2023-04-26T19:26:12.529Z,47.31
2023-04-26T19:28:16.299Z,48.03
2023-04-26T19:30:18.730Z,47.49
2023-04-26T19:32:23.234Z,48.29
2023-04-26T19:34:25.240Z,48.32
2023-04-26T19:36:27.719Z,48.99
2023-04-26T19:38:32.170Z,48.36
2023-04-26T19:40:34.232Z,48.86
2023-04-26T19:42:36.219Z,48.74
2023-04-26T19:44:40.063Z,48.83
2023-04-26T19:46:42.860Z,49.05
2023-04-26T19:48:45.121Z,48.57
2023-04-26T19:50:47.567Z,49.41
2023-04-26T19:52:50.020Z,49.40
2023-04-26T19:54:55.383Z,49.50
2023-04-26T19:56:57.458Z,49.50
2023-04-26T19:58:59.776Z,49.10
2023-04-26T20:01:02.256Z,49.14
2023-04-26T20:03:07.757Z,49.05
2023-04-26T20:05:10.916Z,48.64
2023-04-26T20:07:12.797Z,48.93
2023-04-26T20:09:15.112Z,48.93
2023-04-26T20:11:18.855Z,49.40
2023-04-26T20:13:20.984Z,49.38
2023-04-26T20:15:24.569Z,49.19
2023-04-26T20:17:27.252Z,49.00
2023-04-26T20:19:29.878Z,50.12
2023-04-26T20:21:32.748Z,49.32
2023-04-26T20:23:34.668Z,49.77
2023-04-26T20:25:36.579Z,49.37
2023-04-26T20:27:38.698Z,50.04
2023-04-26T20:29:40.610Z,49.72
2023-04-26T20:31:44.795Z,49.70
2023-04-26T20:33:46.811Z,49.24
2023-04-26T20:35:49.014Z,48.93
2023-04-26T20:37:51.468Z,48.30
2023-04-26T20:39:55.560Z,48.95
2023-04-26T20:41:57.361Z,48.69
2023-04-26T20:43:59.234Z,48.39
2023-04-26T20:46:01.208Z,48.43
2023-04-26T20:48:03.344Z,48.82
2023-04-26T20:50:08.244Z,49.23
2023-04-26T20:52:10.312Z,49.06
2023-04-26T20:54:12.581Z,48.75
2023-04-26T20:56:16.849Z,48.77
2023-04-26T20:58:18.810Z,48.89
2023-04-26T21:00:21.208Z,49.69
2023-04-26T21:02:23.244Z,49.77
2023-04-26T21:04:25.429Z,49.05
2023-04-26T21:06:27.882Z,49.62
2023-04-26T21:08:29.879Z,49.41
2023-04-26T21:10:34.786Z,49.69
2023-04-26T21:12:37.619Z,50.09
2023-04-26T21:14:39.567Z,50.46
2023-04-26T21:16:41.461Z,49.17
2023-04-26T21:18:43.679Z,50.31
2023-04-26T21:20:45.843Z,49.74
2023-04-26T21:22:48.065Z,50.10
2023-04-26T21:24:52.435Z,50.13
2023-04-26T21:26:54.352Z,49.91
2023-04-26T21:28:56.643Z,50.38
2023-04-26T21:31:08.923Z,50.18
2023-04-26T21:33:12.642Z,49.70
2023-04-26T21:35:14.547Z,50.50
2023-04-26T21:37:17.073Z,49.61
2023-04-26T21:39:21.141Z,50.67
2023-04-26T21:41:23.739Z,50.34
2023-04-26T21:43:26.100Z,49.46
2023-04-26T21:45:28.180Z,50.11
2023-04-26T21:47:30.229Z,50.16
2023-04-26T21:49:32.409Z,49.65
2023-04-26T21:51:34.211Z,50.08
2023-04-26T21:53:36.164Z,50.07
2023-04-26T21:55:38.384Z,50.06
2023-04-26T21:57:40.316Z,49.85
2023-04-26T21:59:42.549Z,49.28
2023-04-26T22:01:44.446Z,49.61
2023-04-26T22:03:46.494Z,49.21
2023-04-26T22:05:48.587Z,49.04
2023-04-26T22:07:50.329Z,49.19
2023-04-26T22:09:56.465Z,49.07
2023-04-26T22:11:58.428Z,49.68
2023-04-26T22:14:00.290Z,49.52
2023-04-26T22:16:02.250Z,49.89
2023-04-26T22:18:04.344Z,49.90
2023-04-26T22:20:07.816Z,50.27
2023-04-26T22:22:09.637Z,49.73
2023-04-26T22:24:11.509Z,49.56
2023-04-26T22:26:13.674Z,49.87
2023-04-26T22:28:16.092Z,49.30
2023-04-26T22:30:25.583Z,49.96
2023-04-26T22:32:28.416Z,49.84
2023-04-26T22:34:30.230Z,50.42
2023-04-26T22:36:32.795Z,50.18
2023-04-26T22:38:34.928Z,50.42
2023-04-26T22:40:36.718Z,50.07
2023-04-26T22:42:38.558Z,50.00
2023-04-26T22:44:40.326Z,50.58
2023-04-26T22:46:42.090Z,50.80
2023-04-26T22:48:43.984Z,51.15
2023-04-26T22:50:50.481Z,51.12
2023-04-26T22:52:52.222Z,50.34
2023-04-26T22:54:54.102Z,51.13
2023-04-26T22:56:56.021Z,50.96
2023-04-26T22:58:57.866Z,51.05
2023-04-26T23:00:59.701Z,50.63
2023-04-26T23:03:01.797Z,50.91
2023-04-26T23:05:05.451Z,50.60
2023-04-26T23:07:07.599Z,50.99
2023-04-26T23:09:09.809Z,51.27
2023-04-26T23:11:11.858Z,50.92
2023-04-26T23:13:14.770Z,51.19
2023-04-26T23:15:16.746Z,51.25
2023-04-26T23:17:20.670Z,51.81
2023-04-26T23:19:22.498Z,52.07
2023-04-26T23:21:26.520Z,51.75
2023-04-26T23:23:31.870Z,52.59
2023-04-26T23:25:33.656Z,51.77
2023-04-26T23:27:36.199Z,51.66
2023-04-26T23:29:40.495Z,51.67
2023-04-26T23:31:42.562Z,51.72
2023-04-26T23:33:44.499Z,51.68
2023-04-26T23:35:46.480Z,51.62
2023-04-26T23:37:48.250Z,51.76
2023-04-26T23:39:50.191Z,51.95
2023-04-26T23:41:51.969Z,51.23
2023-04-26T23:43:53.698Z,51.72
2023-04-26T23:45:55.454Z,51.72
2023-04-26T23:47:57.272Z,51.64
2023-04-26T23:49:59.085Z,51.37
2023-04-26T23:52:01.210Z,51.79
2023-04-26T23:54:06.099Z,51.36
2023-04-26T23:56:08.088Z,51.52
2023-04-26T23:58:10.378Z,51.77
